Terminal Aerodrome Forecast
Issued by NWS

Home | Current Version | Previous Version | Text Only | Print | Product List | Glossary On
Versions: 1 2 3 4 5 6 7 8 9 10 11 12 13 14 15 16 17 18 19 20
000
FTUS44 KEWX 301036 AAA
TAFSSF
TAF AMD
KSSF 301036Z 3011/3106 06010KT P6SM FEW009 SCT035 BKN250
      TEMPO 3011/3013 5SM -SHRA BKN009
     FM301600 05003KT P6SM BKN025
     FM302000 07008KT P6SM VCSH BKN045
      TEMPO 3021/3101 VRB15KT 5SM SHRA
     FM310100 07005KT P6SM BKN100=

USA.gov is the U.S. government's official web portal to all federal, state and local government web resources and services.